createdAt,value
2023-05-08T00:02:22.237Z,5.33
2023-05-08T00:04:48.898Z,5.77
2023-05-08T00:07:15.539Z,5.93
2023-05-08T00:09:41.913Z,7.60
2023-05-08T00:12:08.370Z,5.73
2023-05-08T00:14:34.854Z,5.43
2023-05-08T00:17:02.271Z,5.73
2023-05-08T00:19:29.900Z,5.90
2023-05-08T00:21:56.338Z,6.13
2023-05-08T00:24:22.836Z,5.33
2023-05-08T00:26:49.347Z,6.03
2023-05-08T00:29:15.927Z,8.60
2023-05-08T00:31:42.416Z,5.27
2023-05-08T00:34:08.853Z,6.40
2023-05-08T00:36:35.522Z,7.67
2023-05-08T00:39:02.042Z,6.77
2023-05-08T00:41:28.573Z,6.77
2023-05-08T00:43:54.968Z,6.83
2023-05-08T00:46:21.614Z,7.40
2023-05-08T00:48:48.286Z,7.33
2023-05-08T00:51:15.383Z,7.97
2023-05-08T00:53:43.179Z,7.13
2023-05-08T00:56:11.987Z,8.10
2023-05-08T00:58:38.695Z,7.03
2023-05-08T01:01:05.464Z,5.70
2023-05-08T01:03:33.943Z,7.67
2023-05-08T01:06:02.177Z,6.47
2023-05-08T01:08:28.968Z,7.03
2023-05-08T01:11:11.500Z,4.50
2023-05-08T01:13:56.899Z,6.70
2023-05-08T01:16:31.823Z,6.00
2023-05-08T01:19:23.825Z,8.37
2023-05-08T01:22:02.136Z,5.77
2023-05-08T01:24:56.842Z,7.00
2023-05-08T01:27:42.239Z,6.90
2023-05-08T01:30:43.481Z,6.47
2023-05-08T01:33:27.258Z,6.37
2023-05-08T01:35:59.493Z,8.93
2023-05-08T01:38:51.489Z,7.10
2023-05-08T01:41:26.088Z,7.03
2023-05-08T01:44:20.317Z,6.40
2023-05-08T01:46:51.082Z,7.00
2023-05-08T01:49:23.310Z,7.60
2023-05-08T01:51:56.978Z,5.17
2023-05-08T01:54:26.073Z,6.47
2023-05-08T01:56:55.381Z,7.97
2023-05-08T01:59:23.770Z,8.77
2023-05-08T02:01:56.881Z,6.50
2023-05-08T02:04:24.175Z,7.60
2023-05-08T02:06:52.024Z,7.00
2023-05-08T02:09:21.381Z,7.83
2023-05-08T02:11:49.326Z,5.13
2023-05-08T02:14:18.714Z,6.73
2023-05-08T02:16:46.299Z,7.03
2023-05-08T02:19:14.171Z,5.60
2023-05-08T02:21:41.226Z,8.37
2023-05-08T02:24:08.293Z,7.07
2023-05-08T02:26:35.755Z,6.50
2023-05-08T02:29:03.144Z,8.40
2023-05-08T02:31:30.142Z,8.07
2023-05-08T02:33:57.420Z,8.17
2023-05-08T02:36:24.440Z,6.73
2023-05-08T02:38:52.931Z,7.20
2023-05-08T02:41:22.243Z,7.23
2023-05-08T02:43:49.783Z,7.30
2023-05-08T02:46:19.753Z,7.57
2023-05-08T02:49:03.827Z,10.03
2023-05-08T02:51:48.757Z,7.53
2023-05-08T02:54:25.379Z,7.70
2023-05-08T02:57:14.106Z,6.20
2023-05-08T02:59:45.480Z,7.43
2023-05-08T03:02:42.545Z,5.90
2023-05-08T03:05:16.455Z,9.57
2023-05-08T03:07:45.081Z,7.50
2023-05-08T03:10:16.578Z,6.17
2023-05-08T03:12:46.930Z,8.00
2023-05-08T03:15:24.157Z,6.07
2023-05-08T03:17:54.967Z,6.93
2023-05-08T03:20:22.912Z,6.93
2023-05-08T03:22:50.844Z,7.27
2023-05-08T03:25:19.465Z,7.43
2023-05-08T03:27:46.379Z,7.20
2023-05-08T03:30:13.429Z,6.70
2023-05-08T03:32:41.430Z,6.43
2023-05-08T03:35:09.485Z,8.03
2023-05-08T03:37:36.046Z,7.90
2023-05-08T03:40:02.463Z,6.90
2023-05-08T03:42:31.088Z,8.70
2023-05-08T03:44:57.820Z,6.57
2023-05-08T03:47:26.153Z,7.67
2023-05-08T03:49:53.577Z,7.73
2023-05-08T03:52:20.052Z,7.93
2023-05-08T03:54:46.760Z,5.47
2023-05-08T03:57:13.492Z,7.43
2023-05-08T03:59:53.113Z,7.97
2023-05-08T04:02:42.487Z,7.13
2023-05-08T04:05:20.626Z,8.67
2023-05-08T04:07:53.759Z,7.10
2023-05-08T04:10:32.702Z,7.17
2023-05-08T04:13:05.702Z,8.63
2023-05-08T04:15:35.260Z,6.60
2023-05-08T04:18:12.713Z,7.87
2023-05-08T04:20:43.237Z,6.70
2023-05-08T04:23:14.566Z,7.60
2023-05-08T04:25:42.754Z,6.80
2023-05-08T04:28:10.286Z,6.13
2023-05-08T04:30:36.897Z,7.57
2023-05-08T04:33:06.302Z,8.43
2023-05-08T04:35:34.002Z,6.47
2023-05-08T04:38:01.198Z,10.50
2023-05-08T04:40:27.814Z,7.03
2023-05-08T04:42:55.379Z,7.23
2023-05-08T04:45:22.116Z,8.00
2023-05-08T04:47:49.582Z,8.23
2023-05-08T04:50:16.022Z,6.13
2023-05-08T04:52:43.081Z,6.03
2023-05-08T04:55:10.256Z,6.53
2023-05-08T04:57:36.820Z,5.80
2023-05-08T05:00:06.070Z,6.47
2023-05-08T05:02:32.729Z,5.77
2023-05-08T05:05:01.441Z,6.47
2023-05-08T05:07:28.085Z,8.23
2023-05-08T05:09:54.647Z,5.53
2023-05-08T05:12:21.285Z,5.77
2023-05-08T05:14:47.685Z,6.90
2023-05-08T05:17:14.338Z,6.53
2023-05-08T05:19:40.728Z,4.77
2023-05-08T05:22:08.162Z,4.33
2023-05-08T05:24:36.109Z,4.63
2023-05-08T05:27:02.877Z,3.47
2023-05-08T05:29:30.282Z,4.40
2023-05-08T05:31:56.895Z,3.70
2023-05-08T05:34:23.461Z,4.83
2023-05-08T05:36:49.962Z,6.33
2023-05-08T05:39:16.412Z,3.90
2023-05-08T05:41:44.316Z,4.43
2023-05-08T05:44:11.314Z,3.27
2023-05-08T05:46:37.790Z,3.88
2023-05-08T05:49:04.219Z,3.70
2023-05-08T05:51:30.645Z,3.17
2023-05-08T05:53:57.213Z,2.80
2023-05-08T05:56:23.700Z,4.10
2023-05-08T05:58:50.345Z,4.22
2023-05-08T06:01:17.173Z,2.95
2023-05-08T06:03:44.163Z,4.65
2023-05-08T06:06:11.174Z,3.40
2023-05-08T06:08:37.714Z,2.43
2023-05-08T06:11:04.334Z,3.57
2023-05-08T06:13:31.529Z,2.95
2023-05-08T06:15:58.343Z,3.42
2023-05-08T06:18:24.833Z,3.15
2023-05-08T06:21:00.393Z,3.20
2023-05-08T06:23:27.114Z,2.58
2023-05-08T06:25:54.165Z,3.47
2023-05-08T06:28:22.456Z,2.53
2023-05-08T06:30:48.909Z,3.97
2023-05-08T06:33:15.354Z,2.58
2023-05-08T06:35:41.721Z,2.85
2023-05-08T06:38:08.362Z,3.08
2023-05-08T06:40:34.848Z,3.88
2023-05-08T06:43:01.405Z,3.47
2023-05-08T06:45:27.926Z,2.50
2023-05-08T06:47:54.475Z,2.60
2023-05-08T06:50:21.105Z,4.95
2023-05-08T06:52:47.591Z,2.78
2023-05-08T06:55:15.105Z,3.17
2023-05-08T06:57:41.903Z,2.55
2023-05-08T07:00:09.773Z,2.80
2023-05-08T07:02:36.244Z,2.10
2023-05-08T07:05:03.417Z,2.95
2023-05-08T07:07:30.501Z,3.47
2023-05-08T07:09:57.039Z,2.53
2023-05-08T07:12:23.700Z,2.88
2023-05-08T07:14:50.351Z,2.42
2023-05-08T07:17:16.827Z,2.45
2023-05-08T07:19:43.294Z,3.00
2023-05-08T07:22:09.713Z,2.15
2023-05-08T07:24:36.429Z,1.90
2023-05-08T07:27:03.167Z,2.95
2023-05-08T07:29:29.684Z,2.03
2023-05-08T07:31:56.331Z,2.40
2023-05-08T07:34:22.862Z,1.92
2023-05-08T07:36:49.986Z,1.67
2023-05-08T07:39:16.526Z,1.77
2023-05-08T07:41:43.236Z,1.98
2023-05-08T07:44:09.926Z,1.35
2023-05-08T07:46:37.262Z,2.20
2023-05-08T07:49:03.917Z,1.63
2023-05-08T07:51:30.358Z,1.75
2023-05-08T07:53:56.826Z,2.80
2023-05-08T07:56:23.769Z,1.67
2023-05-08T07:58:50.382Z,2.28
2023-05-08T08:01:18.287Z,1.77
2023-05-08T08:03:46.078Z,1.55
2023-05-08T08:06:12.790Z,1.80
2023-05-08T08:08:39.462Z,1.55
2023-05-08T08:11:07.090Z,1.45
2023-05-08T08:13:33.725Z,1.63
2023-05-08T08:16:01.634Z,1.77
2023-05-08T08:18:28.560Z,1.92
2023-05-08T08:20:55.252Z,1.63
2023-05-08T08:23:21.913Z,1.70
2023-05-08T08:25:48.591Z,1.65
2023-05-08T08:28:15.097Z,2.22
2023-05-08T08:30:41.835Z,1.15
2023-05-08T08:33:08.460Z,1.50
2023-05-08T08:35:34.980Z,1.45
2023-05-08T08:38:01.575Z,2.03
2023-05-08T08:40:28.501Z,1.88
2023-05-08T08:42:55.839Z,1.80
2023-05-08T08:45:22.487Z,1.88
2023-05-08T08:47:52.249Z,1.35
2023-05-08T08:50:19.626Z,1.52
2023-05-08T08:53:02.950Z,1.35
2023-05-08T08:55:29.934Z,1.52
2023-05-08T08:58:18.104Z,1.77
2023-05-08T09:00:44.629Z,1.60
2023-05-08T09:03:11.182Z,1.50
2023-05-08T09:05:38.648Z,1.48
2023-05-08T09:08:06.058Z,2.33
2023-05-08T09:10:32.893Z,1.25
2023-05-08T09:12:59.523Z,1.67
2023-05-08T09:15:25.989Z,1.45
2023-05-08T09:17:52.410Z,1.52
2023-05-08T09:20:19.183Z,1.77
2023-05-08T09:22:46.008Z,1.85
2023-05-08T09:25:12.893Z,1.13
2023-05-08T09:27:39.900Z,1.33
2023-05-08T09:30:08.570Z,1.63
2023-05-08T09:32:36.914Z,1.27
2023-05-08T09:35:04.063Z,1.67
2023-05-08T09:37:30.960Z,1.10
2023-05-08T09:40:20.908Z,1.50
2023-05-08T09:42:48.979Z,1.65
2023-05-08T09:45:32.311Z,1.55
2023-05-08T09:47:59.172Z,1.20
2023-05-08T09:50:25.858Z,1.73
2023-05-08T09:52:52.737Z,1.70
2023-05-08T09:55:19.323Z,1.20
2023-05-08T09:57:59.169Z,1.15
2023-05-08T10:00:27.299Z,1.75
2023-05-08T10:03:02.529Z,2.88
2023-05-08T10:05:31.165Z,1.48
2023-05-08T10:07:59.425Z,2.13
2023-05-08T10:10:27.941Z,1.95
2023-05-08T10:12:56.325Z,1.40
2023-05-08T10:15:28.836Z,1.30
2023-05-08T10:18:08.723Z,1.50
2023-05-08T10:20:42.377Z,1.95
2023-05-08T10:23:14.085Z,2.47
2023-05-08T10:25:45.179Z,2.05
2023-05-08T10:28:31.484Z,2.42
2023-05-08T10:31:01.604Z,2.05
2023-05-08T10:33:33.431Z,2.50
2023-05-08T10:36:00.656Z,2.10
2023-05-08T10:38:27.585Z,2.25
2023-05-08T10:40:57.909Z,1.48
2023-05-08T10:43:25.644Z,1.67
2023-05-08T10:45:53.098Z,1.38
2023-05-08T10:48:38.092Z,2.05
2023-05-08T10:51:15.327Z,2.03
2023-05-08T10:53:59.588Z,1.75
2023-05-08T10:56:27.299Z,2.22
2023-05-08T10:58:58.242Z,1.95
2023-05-08T11:01:26.065Z,2.55
2023-05-08T11:03:52.902Z,2.05
2023-05-08T11:06:43.777Z,2.75
2023-05-08T11:09:14.999Z,1.60
2023-05-08T11:11:45.711Z,1.40
2023-05-08T11:14:14.265Z,1.90
2023-05-08T11:17:03.476Z,2.03
2023-05-08T11:19:30.261Z,1.58
2023-05-08T11:22:16.669Z,1.88
2023-05-08T11:24:54.820Z,2.92
2023-05-08T11:27:49.181Z,2.65
2023-05-08T11:30:20.389Z,1.83
2023-05-08T11:33:16.691Z,1.65
2023-05-08T11:35:52.077Z,2.10
2023-05-08T11:38:24.523Z,1.23
2023-05-08T11:41:00.264Z,1.42
2023-05-08T11:43:34.016Z,1.75
2023-05-08T11:46:04.106Z,1.92
2023-05-08T11:48:34.155Z,1.67
2023-05-08T11:51:01.513Z,2.45
2023-05-08T11:53:31.573Z,2.28
2023-05-08T11:55:59.107Z,2.30
2023-05-08T11:58:25.994Z,1.63
2023-05-08T12:00:52.607Z,2.38
2023-05-08T12:03:21.979Z,2.53
2023-05-08T12:05:50.216Z,2.08
2023-05-08T12:08:17.970Z,1.50
2023-05-08T12:10:55.406Z,1.85
2023-05-08T12:13:24.325Z,2.20
2023-05-08T12:15:55.731Z,1.45
2023-05-08T12:18:23.223Z,1.67
2023-05-08T12:20:54.163Z,1.98
2023-05-08T12:23:20.914Z,1.33
2023-05-08T12:25:47.518Z,1.38
2023-05-08T12:28:14.020Z,1.50
2023-05-08T12:30:41.051Z,1.98
2023-05-08T12:33:08.436Z,1.60
2023-05-08T12:35:35.021Z,1.65
2023-05-08T12:38:03.446Z,2.00
2023-05-08T12:40:33.099Z,1.45
2023-05-08T12:43:03.993Z,1.50
2023-05-08T12:45:33.734Z,1.60
2023-05-08T12:48:05.697Z,1.88
2023-05-08T12:50:37.200Z,1.65
2023-05-08T12:53:05.486Z,1.95
2023-05-08T12:55:33.991Z,1.98
2023-05-08T12:58:05.290Z,2.90
2023-05-08T13:00:54.134Z,2.00
2023-05-08T13:03:26.696Z,1.48
2023-05-08T13:05:55.213Z,1.92
2023-05-08T13:08:30.299Z,1.30
2023-05-08T13:10:57.339Z,2.33
2023-05-08T13:13:26.614Z,2.42
2023-05-08T13:15:54.990Z,2.28
2023-05-08T13:18:24.848Z,2.40
2023-05-08T13:20:51.547Z,2.08
2023-05-08T13:23:18.063Z,2.63
2023-05-08T13:25:44.668Z,2.03
2023-05-08T13:28:11.669Z,1.40
2023-05-08T13:30:38.395Z,3.53
2023-05-08T13:33:05.350Z,1.80
2023-05-08T13:35:32.403Z,3.08
2023-05-08T13:37:59.134Z,1.85
2023-05-08T13:40:26.284Z,4.63
2023-05-08T13:42:52.933Z,1.58
2023-05-08T13:45:19.438Z,2.15
2023-05-08T13:47:47.551Z,2.00
2023-05-08T13:50:15.843Z,1.88
2023-05-08T13:52:42.481Z,1.65
2023-05-08T13:55:10.948Z,1.63
2023-05-08T13:57:38.026Z,1.88
2023-05-08T14:00:05.861Z,1.50
2023-05-08T14:02:32.638Z,1.85
2023-05-08T14:04:59.116Z,3.15
2023-05-08T14:07:26.486Z,2.20
2023-05-08T14:09:53.314Z,3.28
2023-05-08T14:12:19.793Z,1.52
2023-05-08T14:14:46.324Z,2.60
2023-05-08T14:17:12.774Z,1.90
2023-05-08T14:19:39.620Z,2.22
2023-05-08T14:22:06.986Z,1.92
2023-05-08T14:24:33.903Z,2.92
2023-05-08T14:27:01.959Z,1.60
2023-05-08T14:29:28.446Z,2.33
2023-05-08T14:31:55.126Z,1.90
2023-05-08T14:34:21.945Z,2.25
2023-05-08T14:36:48.324Z,1.65
2023-05-08T14:39:14.814Z,3.58
2023-05-08T14:41:48.075Z,2.38
2023-05-08T14:44:26.101Z,2.28
2023-05-08T14:46:52.491Z,2.40
2023-05-08T14:49:25.410Z,2.17
2023-05-08T14:51:59.837Z,3.05
2023-05-08T14:54:26.448Z,8.65
2023-05-08T14:56:53.065Z,2.55
2023-05-08T14:59:19.567Z,1.90
2023-05-08T15:01:46.016Z,1.75
2023-05-08T15:04:12.775Z,2.85
2023-05-08T15:06:40.426Z,2.10
2023-05-08T15:09:08.551Z,3.42
2023-05-08T15:11:36.151Z,2.47
2023-05-08T15:14:04.069Z,2.03
2023-05-08T15:16:31.206Z,2.33
2023-05-08T15:18:57.689Z,2.42
2023-05-08T15:21:26.640Z,2.50
2023-05-08T15:23:54.781Z,2.92
2023-05-08T15:26:22.126Z,2.30
2023-05-08T15:28:49.004Z,1.60
2023-05-08T15:31:15.914Z,2.50
2023-05-08T15:33:44.924Z,2.55
2023-05-08T15:36:13.116Z,1.95
2023-05-08T15:38:40.955Z,2.88
2023-05-08T15:41:07.676Z,1.83
2023-05-08T15:43:34.106Z,2.63
2023-05-08T15:46:00.707Z,2.65
2023-05-08T15:48:27.278Z,1.92
2023-05-08T15:50:53.775Z,2.05
2023-05-08T15:53:20.765Z,1.98
2023-05-08T15:55:47.202Z,2.25
2023-05-08T15:58:13.572Z,3.80
2023-05-08T16:00:44.779Z,2.25
2023-05-08T16:03:12.337Z,3.30
2023-05-08T16:05:39.525Z,2.42
2023-05-08T16:08:07.552Z,1.80
2023-05-08T16:10:34.361Z,2.65
2023-05-08T16:13:00.903Z,2.33
2023-05-08T16:15:27.412Z,2.05
2023-05-08T16:17:53.907Z,3.13
2023-05-08T16:20:20.951Z,2.15
2023-05-08T16:22:47.385Z,1.77
2023-05-08T16:25:14.246Z,3.17
2023-05-08T16:27:40.968Z,2.13
2023-05-08T16:30:08.018Z,3.47
2023-05-08T16:32:34.563Z,3.08
2023-05-08T16:35:01.137Z,3.97
2023-05-08T16:37:27.742Z,2.75
2023-05-08T16:39:54.273Z,4.95
2023-05-08T16:42:20.905Z,2.80
2023-05-08T16:44:47.508Z,2.28
2023-05-08T16:47:14.606Z,2.90
2023-05-08T16:49:41.259Z,3.05
2023-05-08T16:52:07.758Z,3.10
2023-05-08T16:54:34.312Z,2.33
2023-05-08T16:57:01.387Z,2.25
2023-05-08T16:59:28.010Z,2.05
2023-05-08T17:01:54.512Z,2.30
2023-05-08T17:04:21.073Z,2.85
2023-05-08T17:06:47.649Z,3.28
2023-05-08T17:09:14.064Z,2.88
2023-05-08T17:11:40.606Z,3.33
2023-05-08T17:14:07.144Z,4.25
2023-05-08T17:16:33.639Z,2.55
2023-05-08T17:19:00.564Z,3.28
2023-05-08T17:21:27.055Z,2.67
2023-05-08T17:23:53.716Z,4.55
2023-05-08T17:26:21.713Z,2.92
2023-05-08T17:28:48.235Z,2.83
2023-05-08T17:31:15.871Z,3.70
2023-05-08T17:33:42.522Z,3.40
2023-05-08T17:36:09.284Z,3.22
2023-05-08T17:38:38.334Z,3.13
2023-05-08T17:41:04.881Z,3.95
2023-05-08T17:43:31.520Z,3.15
2023-05-08T17:45:58.161Z,3.78
2023-05-08T17:48:24.844Z,3.03
2023-05-08T17:50:51.243Z,4.05
2023-05-08T17:53:17.771Z,3.08
2023-05-08T17:55:44.427Z,2.83
2023-05-08T17:58:11.015Z,3.80
2023-05-08T18:00:37.831Z,3.70
2023-05-08T18:03:04.931Z,4.70
2023-05-08T18:05:31.856Z,3.92
2023-05-08T18:07:59.389Z,3.05
2023-05-08T18:10:25.907Z,2.75
2023-05-08T18:12:52.425Z,3.15
2023-05-08T18:15:18.856Z,5.40
2023-05-08T18:17:45.249Z,3.60
2023-05-08T18:20:12.447Z,4.18
2023-05-08T18:22:39.330Z,4.68
2023-05-08T18:25:06.318Z,4.43
2023-05-08T18:27:34.360Z,4.78
2023-05-08T18:30:00.975Z,6.30
2023-05-08T18:32:27.427Z,5.32
2023-05-08T18:34:54.204Z,5.40
2023-05-08T18:37:20.682Z,3.38
2023-05-08T18:39:47.440Z,3.92
2023-05-08T18:42:14.039Z,4.85
2023-05-08T18:44:40.996Z,5.35
2023-05-08T18:47:07.552Z,5.65
2023-05-08T18:49:34.046Z,3.97
2023-05-08T18:52:00.586Z,4.20
2023-05-08T18:54:27.148Z,4.43
2023-05-08T18:56:54.222Z,5.47
2023-05-08T18:59:21.671Z,5.80
2023-05-08T19:01:49.982Z,4.75
2023-05-08T19:04:16.849Z,3.20
2023-05-08T19:06:43.453Z,4.20
2023-05-08T19:09:10.114Z,6.43
2023-05-08T19:11:36.815Z,3.83
2023-05-08T19:14:03.456Z,5.07
2023-05-08T19:16:30.004Z,3.65
2023-05-08T19:18:56.621Z,4.90
2023-05-08T19:21:23.792Z,5.10
2023-05-08T19:23:50.665Z,4.82
2023-05-08T19:26:18.112Z,6.50
2023-05-08T19:28:44.593Z,4.18
2023-05-08T19:31:11.079Z,4.15
2023-05-08T19:33:37.605Z,4.13
2023-05-08T19:36:04.112Z,4.03
2023-05-08T19:38:31.039Z,4.95
2023-05-08T19:40:58.115Z,4.70
2023-05-08T19:43:27.584Z,4.88
2023-05-08T19:45:55.259Z,4.28
2023-05-08T19:48:21.962Z,5.18
2023-05-08T19:50:48.608Z,3.60
2023-05-08T19:53:15.206Z,5.13
2023-05-08T19:55:41.723Z,4.78
2023-05-08T19:58:08.156Z,4.68
2023-05-08T20:00:35.320Z,4.93
2023-05-08T20:03:02.057Z,4.85
2023-05-08T20:05:28.706Z,4.85
2023-05-08T20:07:55.302Z,5.47
2023-05-08T20:10:22.449Z,5.85
2023-05-08T20:12:49.242Z,6.35
2023-05-08T20:15:15.900Z,6.22
2023-05-08T20:17:42.894Z,4.10
2023-05-08T20:20:10.216Z,6.97
2023-05-08T20:22:37.774Z,4.47
2023-05-08T20:25:05.165Z,6.70
2023-05-08T20:27:32.118Z,6.55
2023-05-08T20:29:58.726Z,3.90
2023-05-08T20:32:25.312Z,5.05
2023-05-08T20:34:51.951Z,3.78
2023-05-08T20:37:18.506Z,5.35
2023-05-08T20:39:45.297Z,4.05
2023-05-08T20:42:11.854Z,4.55
2023-05-08T20:44:38.599Z,4.75
2023-05-08T20:47:05.136Z,5.47
2023-05-08T20:49:31.792Z,3.63
2023-05-08T20:51:58.565Z,4.45
2023-05-08T20:54:25.018Z,5.68
2023-05-08T20:56:51.436Z,4.82
2023-05-08T20:59:18.779Z,4.63
2023-05-08T21:01:46.754Z,4.57
2023-05-08T21:04:13.288Z,4.40
2023-05-08T21:06:39.970Z,5.18
2023-05-08T21:09:07.193Z,5.25
2023-05-08T21:11:33.731Z,3.42
2023-05-08T21:14:00.194Z,6.22
2023-05-08T21:16:27.019Z,5.30
2023-05-08T21:18:55.370Z,5.05
2023-05-08T21:21:23.254Z,5.07
2023-05-08T21:23:49.679Z,5.30
2023-05-08T21:26:16.177Z,5.53
2023-05-08T21:28:42.625Z,3.78
2023-05-08T21:31:09.280Z,4.30
2023-05-08T21:33:36.531Z,5.47
2023-05-08T21:36:03.160Z,4.37
2023-05-08T21:38:29.783Z,4.18
2023-05-08T21:40:56.476Z,3.92
2023-05-08T21:43:22.985Z,4.25
2023-05-08T21:45:49.355Z,3.17
2023-05-08T21:48:15.870Z,5.65
2023-05-08T21:50:42.334Z,3.53
2023-05-08T21:53:08.798Z,6.20
2023-05-08T21:55:35.498Z,5.00
2023-05-08T21:58:01.991Z,4.55
2023-05-08T22:00:28.864Z,4.85
2023-05-08T22:02:55.738Z,4.20
2023-05-08T22:05:24.423Z,5.53
2023-05-08T22:07:51.055Z,3.72
2023-05-08T22:10:17.622Z,4.63
2023-05-08T22:12:44.198Z,5.15
2023-05-08T22:15:25.505Z,4.47
2023-05-08T22:17:55.970Z,4.33
2023-05-08T22:20:22.779Z,4.40
2023-05-08T22:22:49.313Z,4.78
2023-05-08T22:25:16.162Z,5.45
2023-05-08T22:27:42.800Z,4.97
2023-05-08T22:30:09.507Z,5.03
2023-05-08T22:32:36.617Z,4.47
2023-05-08T22:35:03.137Z,3.47
2023-05-08T22:37:30.474Z,4.23
2023-05-08T22:39:56.966Z,3.10
2023-05-08T22:42:24.008Z,4.90
2023-05-08T22:44:50.667Z,3.67
2023-05-08T22:47:17.317Z,4.97
2023-05-08T22:49:43.841Z,3.75
2023-05-08T22:52:10.411Z,4.27
2023-05-08T22:54:37.005Z,3.73
2023-05-08T22:57:03.903Z,3.57
2023-05-08T22:59:30.575Z,3.50
2023-05-08T23:01:56.974Z,4.10
2023-05-08T23:04:23.407Z,4.10
2023-05-08T23:06:49.979Z,3.57
2023-05-08T23:09:16.553Z,2.87
2023-05-08T23:11:43.036Z,4.67
2023-05-08T23:14:09.583Z,2.63
2023-05-08T23:16:36.672Z,5.73
2023-05-08T23:19:04.648Z,3.80
2023-05-08T23:21:32.213Z,3.70
2023-05-08T23:23:59.549Z,3.47
2023-05-08T23:26:26.429Z,3.20
2023-05-08T23:28:53.111Z,2.90
2023-05-08T23:31:19.815Z,4.33
2023-05-08T23:33:46.458Z,4.18
2023-05-08T23:36:13.371Z,2.90
2023-05-08T23:38:40.571Z,3.60
2023-05-08T23:41:07.788Z,2.77
2023-05-08T23:43:34.218Z,3.53
2023-05-08T23:46:00.759Z,3.40
2023-05-08T23:48:27.707Z,4.63
2023-05-08T23:50:54.206Z,3.43
2023-05-08T23:53:21.155Z,3.07
2023-05-08T23:55:52.508Z,5.03
2023-05-08T23:58:19.030Z,3.40
